sensor_id;sensor_type;location;lat;lon;timestamp;temperature;humidity
57030;DHT22;42920;45.306;20.448;2023-04-19T00:01:53;332.90;2329.60
57030;DHT22;42920;45.306;20.448;2023-04-19T00:04:18;332.90;2329.60
57030;DHT22;42920;45.306;20.448;2023-04-19T00:06:44;332.90;2329.60
57030;DHT22;42920;45.306;20.448;2023-04-19T00:09:11;332.90;2329.60
57030;DHT22;42920;45.306;20.448;2023-04-19T00:11:37;332.90;2329.60
57030;DHT22;42920;45.306;20.448;2023-04-19T00:14:02;332.90;2329.60
57030;DHT22;42920;45.306;20.448;2023-04-19T00:16:28;332.90;2329.60
57030;DHT22;42920;45.306;20.448;2023-04-19T00:18:53;332.90;2329.60
57030;DHT22;42920;45.306;20.448;2023-04-19T00:21:19;332.90;2329.60
57030;DHT22;42920;45.306;20.448;2023-04-19T00:23:44;333.00;2329.60
57030;DHT22;42920;45.306;20.448;2023-04-19T00:26:10;333.00;2329.60
57030;DHT22;42920;45.306;20.448;2023-04-19T00:28:36;333.00;2329.60
57030;DHT22;42920;45.306;20.448;2023-04-19T00:31:01;333.10;2329.60
57030;DHT22;42920;45.306;20.448;2023-04-19T00:33:27;333.10;2329.60
57030;DHT22;42920;45.306;20.448;2023-04-19T00:35:52;333.10;2150.40
57030;DHT22;42920;45.306;20.448;2023-04-19T00:38:18;333.10;2099.20
57030;DHT22;42920;45.306;20.448;2023-04-19T00:40:43;333.00;2329.60
57030;DHT22;42920;45.306;20.448;2023-04-19T00:43:09;333.10;2201.60
57030;DHT22;42920;45.306;20.448;2023-04-19T00:45:34;333.10;1996.80
57030;DHT22;42920;45.306;20.448;2023-04-19T00:48:01;333.10;2329.60
57030;DHT22;42920;45.306;20.448;2023-04-19T00:50:26;333.10;2329.60
57030;DHT22;42920;45.306;20.448;2023-04-19T00:52:53;333.20;2329.60
57030;DHT22;42920;45.306;20.448;2023-04-19T00:55:19;333.20;2329.60
57030;DHT22;42920;45.306;20.448;2023-04-19T00:57:45;333.20;2329.60
57030;DHT22;42920;45.306;20.448;2023-04-19T01:00:12;333.20;2329.60
57030;DHT22;42920;45.306;20.448;2023-04-19T01:02:38;333.20;2329.60
57030;DHT22;42920;45.306;20.448;2023-04-19T01:05:03;333.20;2329.60
57030;DHT22;42920;45.306;20.448;2023-04-19T01:07:29;333.20;2329.60
57030;DHT22;42920;45.306;20.448;2023-04-19T01:09:54;333.20;2329.60
57030;DHT22;42920;45.306;20.448;2023-04-19T01:12:20;333.20;2329.60
57030;DHT22;42920;45.306;20.448;2023-04-19T01:14:46;333.20;2329.60
57030;DHT22;42920;45.306;20.448;2023-04-19T01:17:11;333.20;2329.60
57030;DHT22;42920;45.306;20.448;2023-04-19T01:19:40;333.20;2329.60
57030;DHT22;42920;45.306;20.448;2023-04-19T01:22:06;333.20;2329.60
57030;DHT22;42920;45.306;20.448;2023-04-19T01:24:32;333.20;2329.60
57030;DHT22;42920;45.306;20.448;2023-04-19T01:26:58;333.20;2329.60
57030;DHT22;42920;45.306;20.448;2023-04-19T01:29:23;333.20;2329.60
57030;DHT22;42920;45.306;20.448;2023-04-19T01:31:49;333.20;2329.60
57030;DHT22;42920;45.306;20.448;2023-04-19T01:34:18;333.20;2329.60
57030;DHT22;42920;45.306;20.448;2023-04-19T01:36:44;333.10;2329.60
57030;DHT22;42920;45.306;20.448;2023-04-19T01:39:09;333.10;2329.60
57030;DHT22;42920;45.306;20.448;2023-04-19T01:41:35;333.10;2329.60
57030;DHT22;42920;45.306;20.448;2023-04-19T01:44:01;333.10;2329.60
57030;DHT22;42920;45.306;20.448;2023-04-19T01:46:26;333.10;2329.60
57030;DHT22;42920;45.306;20.448;2023-04-19T01:48:52;333.20;2329.60
57030;DHT22;42920;45.306;20.448;2023-04-19T01:51:17;333.20;2329.60
57030;DHT22;42920;45.306;20.448;2023-04-19T01:53:46;333.20;2329.60
57030;DHT22;42920;45.306;20.448;2023-04-19T01:56:11;333.20;2329.60
57030;DHT22;42920;45.306;20.448;2023-04-19T01:58:37;333.20;2329.60
57030;DHT22;42920;45.306;20.448;2023-04-19T02:01:02;333.20;2329.60
57030;DHT22;42920;45.306;20.448;2023-04-19T02:03:28;333.10;2329.60
57030;DHT22;42920;45.306;20.448;2023-04-19T02:05:53;333.10;2329.60
57030;DHT22;42920;45.306;20.448;2023-04-19T02:08:19;333.10;2329.60
57030;DHT22;42920;45.306;20.448;2023-04-19T02:10:45;333.20;2329.60
57030;DHT22;42920;45.306;20.448;2023-04-19T02:13:11;333.10;2329.60
57030;DHT22;42920;45.306;20.448;2023-04-19T02:15:36;333.10;2329.60
57030;DHT22;42920;45.306;20.448;2023-04-19T02:18:02;333.10;2329.60
57030;DHT22;42920;45.306;20.448;2023-04-19T02:20:31;333.10;2329.60
57030;DHT22;42920;45.306;20.448;2023-04-19T02:22:56;333.00;2329.60
57030;DHT22;42920;45.306;20.448;2023-04-19T02:25:22;333.00;2329.60
57030;DHT22;42920;45.306;20.448;2023-04-19T02:27:48;332.90;2329.60
57030;DHT22;42920;45.306;20.448;2023-04-19T02:30:13;332.90;2329.60
57030;DHT22;42920;45.306;20.448;2023-04-19T02:32:39;332.90;2329.60
57030;DHT22;42920;45.306;20.448;2023-04-19T02:35:04;333.00;2329.60
57030;DHT22;42920;45.306;20.448;2023-04-19T02:37:30;332.90;2329.60
57030;DHT22;42920;45.306;20.448;2023-04-19T02:39:56;332.90;2329.60
57030;DHT22;42920;45.306;20.448;2023-04-19T02:42:21;332.90;2329.60
57030;DHT22;42920;45.306;20.448;2023-04-19T02:44:47;332.80;2329.60
57030;DHT22;42920;45.306;20.448;2023-04-19T02:47:12;332.80;2329.60
57030;DHT22;42920;45.306;20.448;2023-04-19T02:49:38;308.10;2304.00
57030;DHT22;42920;45.306;20.448;2023-04-19T02:52:05;308.10;2304.00
57030;DHT22;42920;45.306;20.448;2023-04-19T02:54:32;307.80;2304.00
57030;DHT22;42920;45.306;20.448;2023-04-19T02:56:57;308.10;2304.00
57030;DHT22;42920;45.306;20.448;2023-04-19T02:59:23;307.80;2304.00
57030;DHT22;42920;45.306;20.448;2023-04-19T03:01:48;307.80;2304.00
57030;DHT22;42920;45.306;20.448;2023-04-19T03:04:14;307.70;2304.00
57030;DHT22;42920;45.306;20.448;2023-04-19T03:06:39;307.80;2304.00
57030;DHT22;42920;45.306;20.448;2023-04-19T03:09:06;307.90;2304.00
57030;DHT22;42920;45.306;20.448;2023-04-19T03:11:31;307.90;2304.00
57030;DHT22;42920;45.306;20.448;2023-04-19T03:13:57;307.90;2304.00
57030;DHT22;42920;45.306;20.448;2023-04-19T03:16:22;307.80;2304.00
57030;DHT22;42920;45.306;20.448;2023-04-19T03:18:48;307.90;2304.00
57030;DHT22;42920;45.306;20.448;2023-04-19T03:21:13;307.80;2304.00
57030;DHT22;42920;45.306;20.448;2023-04-19T03:23:39;307.80;2304.00
57030;DHT22;42920;45.306;20.448;2023-04-19T03:26:05;307.80;2304.00
57030;DHT22;42920;45.306;20.448;2023-04-19T03:28:30;307.70;2304.00
57030;DHT22;42920;45.306;20.448;2023-04-19T03:30:56;307.70;2304.00
57030;DHT22;42920;45.306;20.448;2023-04-19T03:33:21;307.80;2304.00
57030;DHT22;42920;45.306;20.448;2023-04-19T03:35:47;307.80;2304.00
57030;DHT22;42920;45.306;20.448;2023-04-19T03:38:12;307.80;2304.00
57030;DHT22;42920;45.306;20.448;2023-04-19T03:40:41;307.70;2304.00
57030;DHT22;42920;45.306;20.448;2023-04-19T03:43:06;307.40;2304.00
57030;DHT22;42920;45.306;20.448;2023-04-19T03:45:32;307.50;2304.00
57030;DHT22;42920;45.306;20.448;2023-04-19T03:47:57;307.50;2304.00
57030;DHT22;42920;45.306;20.448;2023-04-19T03:50:23;307.50;2304.00
57030;DHT22;42920;45.306;20.448;2023-04-19T03:52:48;307.60;2304.00
57030;DHT22;42920;45.306;20.448;2023-04-19T03:55:14;307.70;2304.00
57030;DHT22;42920;45.306;20.448;2023-04-19T03:57:39;307.70;2304.00
57030;DHT22;42920;45.306;20.448;2023-04-19T04:00:05;307.60;2304.00
57030;DHT22;42920;45.306;20.448;2023-04-19T04:02:37;307.70;2304.00
57030;DHT22;42920;45.306;20.448;2023-04-19T04:05:03;307.70;2304.00
57030;DHT22;42920;45.306;20.448;2023-04-19T04:07:29;307.40;2304.00
57030;DHT22;42920;45.306;20.448;2023-04-19T04:09:55;307.30;2304.00
57030;DHT22;42920;45.306;20.448;2023-04-19T04:12:20;307.30;2304.00
57030;DHT22;42920;45.306;20.448;2023-04-19T04:14:46;307.30;2304.00
57030;DHT22;42920;45.306;20.448;2023-04-19T04:17:11;307.40;2304.00
57030;DHT22;42920;45.306;20.448;2023-04-19T04:19:37;307.50;2304.00
57030;DHT22;42920;45.306;20.448;2023-04-19T04:22:03;307.60;2304.00
57030;DHT22;42920;45.306;20.448;2023-04-19T04:24:28;307.70;2304.00
57030;DHT22;42920;45.306;20.448;2023-04-19T04:26:57;307.70;2304.00
57030;DHT22;42920;45.306;20.448;2023-04-19T04:29:25;307.80;2304.00
57030;DHT22;42920;45.306;20.448;2023-04-19T04:31:50;307.80;2304.00
57030;DHT22;42920;45.306;20.448;2023-04-19T04:34:16;307.80;2304.00
57030;DHT22;42920;45.306;20.448;2023-04-19T04:36:41;307.80;2304.00
57030;DHT22;42920;45.306;20.448;2023-04-19T04:39:07;307.70;2304.00
57030;DHT22;42920;45.306;20.448;2023-04-19T04:41:36;307.80;2304.00
57030;DHT22;42920;45.306;20.448;2023-04-19T04:44:05;307.80;2304.00
57030;DHT22;42920;45.306;20.448;2023-04-19T04:46:30;307.90;2304.00
57030;DHT22;42920;45.306;20.448;2023-04-19T04:48:56;307.90;2304.00
57030;DHT22;42920;45.306;20.448;2023-04-19T04:51:22;308.00;2304.00
57030;DHT22;42920;45.306;20.448;2023-04-19T04:53:47;307.90;2304.00
57030;DHT22;42920;45.306;20.448;2023-04-19T04:56:13;307.90;2304.00
57030;DHT22;42920;45.306;20.448;2023-04-19T04:58:38;308.00;2304.00
57030;DHT22;42920;45.306;20.448;2023-04-19T05:01:04;308.10;2304.00
57030;DHT22;42920;45.306;20.448;2023-04-19T05:03:29;308.10;2304.00
57030;DHT22;42920;45.306;20.448;2023-04-19T05:05:55;308.00;2304.00
57030;DHT22;42920;45.306;20.448;2023-04-19T05:08:21;308.00;2304.00
57030;DHT22;42920;45.306;20.448;2023-04-19T05:10:46;308.10;2304.00
57030;DHT22;42920;45.306;20.448;2023-04-19T05:13:12;308.10;2304.00
57030;DHT22;42920;45.306;20.448;2023-04-19T05:15:37;308.10;2304.00
57030;DHT22;42920;45.306;20.448;2023-04-19T05:18:04;308.10;2304.00
57030;DHT22;42920;45.306;20.448;2023-04-19T05:20:30;308.10;2304.00
57030;DHT22;42920;45.306;20.448;2023-04-19T05:22:58;308.10;2304.00
57030;DHT22;42920;45.306;20.448;2023-04-19T05:25:24;308.10;2304.00
57030;DHT22;42920;45.306;20.448;2023-04-19T05:27:50;308.10;2304.00
57030;DHT22;42920;45.306;20.448;2023-04-19T05:30:16;332.80;2329.60
57030;DHT22;42920;45.306;20.448;2023-04-19T05:32:41;332.90;2329.60
57030;DHT22;42920;45.306;20.448;2023-04-19T05:35:07;332.80;2329.60
57030;DHT22;42920;45.306;20.448;2023-04-19T05:37:32;332.90;2329.60
57030;DHT22;42920;45.306;20.448;2023-04-19T05:39:58;333.00;2329.60
57030;DHT22;42920;45.306;20.448;2023-04-19T05:42:23;332.90;2329.60
57030;DHT22;42920;45.306;20.448;2023-04-19T05:44:49;332.90;2329.60
57030;DHT22;42920;45.306;20.448;2023-04-19T05:47:15;332.90;2329.60
57030;DHT22;42920;45.306;20.448;2023-04-19T05:49:41;333.00;2329.60
57030;DHT22;42920;45.306;20.448;2023-04-19T05:52:07;332.90;2329.60
57030;DHT22;42920;45.306;20.448;2023-04-19T05:54:32;333.00;2329.60
57030;DHT22;42920;45.306;20.448;2023-04-19T05:57:00;333.00;2329.60
57030;DHT22;42920;45.306;20.448;2023-04-19T05:59:26;333.10;2329.60
57030;DHT22;42920;45.306;20.448;2023-04-19T06:01:51;333.20;2329.60
57030;DHT22;42920;45.306;20.448;2023-04-19T06:04:17;333.20;2329.60
57030;DHT22;42920;45.306;20.448;2023-04-19T06:06:43;333.20;2329.60
57030;DHT22;42920;45.306;20.448;2023-04-19T06:09:08;333.30;2329.60
57030;DHT22;42920;45.306;20.448;2023-04-19T06:11:34;333.30;2329.60
57030;DHT22;42920;45.306;20.448;2023-04-19T06:13:59;333.30;2329.60
57030;DHT22;42920;45.306;20.448;2023-04-19T06:16:25;333.30;2329.60
57030;DHT22;42920;45.306;20.448;2023-04-19T06:18:51;333.40;2329.60
57030;DHT22;42920;45.306;20.448;2023-04-19T06:21:16;333.40;2329.60
57030;DHT22;42920;45.306;20.448;2023-04-19T06:23:42;333.40;2329.60
57030;DHT22;42920;45.306;20.448;2023-04-19T06:26:07;333.40;2329.60
57030;DHT22;42920;45.306;20.448;2023-04-19T06:28:33;333.20;2329.60
57030;DHT22;42920;45.306;20.448;2023-04-19T06:30:58;333.40;2329.60
57030;DHT22;42920;45.306;20.448;2023-04-19T06:33:24;333.40;2329.60
57030;DHT22;42920;45.306;20.448;2023-04-19T06:35:50;333.40;2329.60
57030;DHT22;42920;45.306;20.448;2023-04-19T06:38:15;333.40;2329.60
57030;DHT22;42920;45.306;20.448;2023-04-19T06:40:41;333.40;2329.60
57030;DHT22;42920;45.306;20.448;2023-04-19T06:43:06;333.40;2329.60
57030;DHT22;42920;45.306;20.448;2023-04-19T06:45:32;333.50;2329.60
57030;DHT22;42920;45.306;20.448;2023-04-19T06:47:57;333.60;2329.60
57030;DHT22;42920;45.306;20.448;2023-04-19T06:50:23;333.70;2329.60
57030;DHT22;42920;45.306;20.448;2023-04-19T06:52:49;333.70;2329.60
57030;DHT22;42920;45.306;20.448;2023-04-19T06:55:14;333.70;2329.60
57030;DHT22;42920;45.306;20.448;2023-04-19T06:57:40;333.70;2329.60
57030;DHT22;42920;45.306;20.448;2023-04-19T07:00:06;358.40;2329.60
57030;DHT22;42920;45.306;20.448;2023-04-19T07:02:32;358.40;2329.60
57030;DHT22;42920;45.306;20.448;2023-04-19T07:04:58;358.40;2329.60
57030;DHT22;42920;45.306;20.448;2023-04-19T07:07:23;358.50;2329.60
57030;DHT22;42920;45.306;20.448;2023-04-19T07:09:49;358.60;2329.60
57030;DHT22;42920;45.306;20.448;2023-04-19T07:12:15;358.50;2329.60
57030;DHT22;42920;45.306;20.448;2023-04-19T07:14:40;358.70;2329.60
57030;DHT22;42920;45.306;20.448;2023-04-19T07:17:06;358.70;2329.60
57030;DHT22;42920;45.306;20.448;2023-04-19T07:19:31;358.80;2329.60
57030;DHT22;42920;45.306;20.448;2023-04-19T07:21:57;358.80;2329.60
57030;DHT22;42920;45.306;20.448;2023-04-19T07:24:22;358.80;2329.60
57030;DHT22;42920;45.306;20.448;2023-04-19T07:26:49;358.90;2329.60
57030;DHT22;42920;45.306;20.448;2023-04-19T07:29:15;358.90;2329.60
57030;DHT22;42920;45.306;20.448;2023-04-19T07:31:40;358.90;2329.60
57030;DHT22;42920;45.306;20.448;2023-04-19T07:34:06;358.90;2329.60
57030;DHT22;42920;45.306;20.448;2023-04-19T07:36:32;359.00;2329.60
57030;DHT22;42920;45.306;20.448;2023-04-19T07:38:59;359.00;2329.60
57030;DHT22;42920;45.306;20.448;2023-04-19T07:41:25;359.00;2329.60
57030;DHT22;42920;45.306;20.448;2023-04-19T07:43:50;359.10;2329.60
57030;DHT22;42920;45.306;20.448;2023-04-19T07:46:16;359.20;2329.60
57030;DHT22;42920;45.306;20.448;2023-04-19T07:48:42;359.20;2329.60
57030;DHT22;42920;45.306;20.448;2023-04-19T07:51:09;359.30;2329.60
57030;DHT22;42920;45.306;20.448;2023-04-19T07:53:35;384.00;2329.60
57030;DHT22;42920;45.306;20.448;2023-04-19T07:56:01;384.00;2329.60
57030;DHT22;42920;45.306;20.448;2023-04-19T07:58:26;384.00;2329.60
57030;DHT22;42920;45.306;20.448;2023-04-19T08:00:52;384.00;2329.60
57030;DHT22;42920;45.306;20.448;2023-04-19T08:03:17;384.10;2329.60
57030;DHT22;42920;45.306;20.448;2023-04-19T08:05:43;384.10;2329.60
57030;DHT22;42920;45.306;20.448;2023-04-19T08:08:08;384.20;2329.60
57030;DHT22;42920;45.306;20.448;2023-04-19T08:10:34;384.20;2329.60
57030;DHT22;42920;45.306;20.448;2023-04-19T08:13:00;384.30;2329.60
57030;DHT22;42920;45.306;20.448;2023-04-19T08:15:25;384.20;2329.60
57030;DHT22;42920;45.306;20.448;2023-04-19T08:17:51;384.50;2329.60
57030;DHT22;42920;45.306;20.448;2023-04-19T08:20:17;384.50;2329.60
57030;DHT22;42920;45.306;20.448;2023-04-19T08:22:43;384.60;2329.60
57030;DHT22;42920;45.306;20.448;2023-04-19T08:25:09;384.70;2329.60
57030;DHT22;42920;45.306;20.448;2023-04-19T08:27:35;384.90;2329.60
57030;DHT22;42920;45.306;20.448;2023-04-19T08:30:01;384.90;2329.60
57030;DHT22;42920;45.306;20.448;2023-04-19T08:32:27;409.60;2355.20
57030;DHT22;42920;45.306;20.448;2023-04-19T08:34:53;409.70;2355.20
57030;DHT22;42920;45.306;20.448;2023-04-19T08:37:18;409.70;2355.20
57030;DHT22;42920;45.306;20.448;2023-04-19T08:39:45;409.70;2355.20
57030;DHT22;42920;45.306;20.448;2023-04-19T08:42:11;409.70;2355.20
57030;DHT22;42920;45.306;20.448;2023-04-19T08:44:36;409.90;2355.20
57030;DHT22;42920;45.306;20.448;2023-04-19T08:47:03;410.00;2355.20
57030;DHT22;42920;45.306;20.448;2023-04-19T08:49:29;410.20;2355.20
57030;DHT22;42920;45.306;20.448;2023-04-19T08:51:58;410.30;2355.20
57030;DHT22;42920;45.306;20.448;2023-04-19T08:54:24;410.30;2355.20
57030;DHT22;42920;45.306;20.448;2023-04-19T08:56:51;410.40;2355.20
57030;DHT22;42920;45.306;20.448;2023-04-19T08:59:17;410.50;2355.20
57030;DHT22;42920;45.306;20.448;2023-04-19T09:01:42;410.50;2355.20
57030;DHT22;42920;45.306;20.448;2023-04-19T09:04:08;435.20;2355.20
57030;DHT22;42920;45.306;20.448;2023-04-19T09:06:34;435.30;2355.20
57030;DHT22;42920;45.306;20.448;2023-04-19T09:09:12;435.30;2355.20
57030;DHT22;42920;45.306;20.448;2023-04-19T09:11:38;435.20;2355.20
57030;DHT22;42920;45.306;20.448;2023-04-19T09:14:07;435.20;2355.20
57030;DHT22;42920;45.306;20.448;2023-04-19T09:16:33;410.50;2355.20
57030;DHT22;42920;45.306;20.448;2023-04-19T09:18:59;410.40;2355.20
57030;DHT22;42920;45.306;20.448;2023-04-19T09:21:29;410.40;2355.20
57030;DHT22;42920;45.306;20.448;2023-04-19T09:23:55;410.40;2304.00
57030;DHT22;42920;45.306;20.448;2023-04-19T09:26:21;410.20;2304.00
57030;DHT22;42920;45.306;20.448;2023-04-19T09:31:22;410.30;2355.20
57030;DHT22;42920;45.306;20.448;2023-04-19T09:33:48;410.50;2355.20
57030;DHT22;42920;45.306;20.448;2023-04-19T09:36:28;435.20;2355.20
57030;DHT22;42920;45.306;20.448;2023-04-19T09:38:54;435.20;2355.20
57030;DHT22;42920;45.306;20.448;2023-04-19T09:41:20;435.30;2355.20
57030;DHT22;42920;45.306;20.448;2023-04-19T09:43:46;435.40;2355.20
57030;DHT22;42920;45.306;20.448;2023-04-19T09:46:28;435.30;2355.20
57030;DHT22;42920;45.306;20.448;2023-04-19T09:48:54;435.50;2355.20
57030;DHT22;42920;45.306;20.448;2023-04-19T09:51:20;435.50;2355.20
57030;DHT22;42920;45.306;20.448;2023-04-19T09:53:45;435.50;2355.20
57030;DHT22;42920;45.306;20.448;2023-04-19T09:56:12;435.60;2355.20
57030;DHT22;42920;45.306;20.448;2023-04-19T09:58:38;435.50;2304.00
57030;DHT22;42920;45.306;20.448;2023-04-19T10:01:04;435.50;2304.00
57030;DHT22;42920;45.306;20.448;2023-04-19T10:03:29;435.60;2355.20
57030;DHT22;42920;45.306;20.448;2023-04-19T10:05:55;435.90;2355.20
57030;DHT22;42920;45.306;20.448;2023-04-19T10:08:21;436.10;2329.60
57030;DHT22;42920;45.306;20.448;2023-04-19T10:10:47;460.80;1971.20
57030;DHT22;42920;45.306;20.448;2023-04-19T10:13:18;461.10;1996.80
57030;DHT22;42920;45.306;20.448;2023-04-19T10:15:47;461.60;1843.20
57030;DHT22;42920;45.306;20.448;2023-04-19T10:18:13;486.40;1766.40
57030;DHT22;42920;45.306;20.448;2023-04-19T10:20:46;461.50;1715.20
57030;DHT22;42920;45.306;20.448;2023-04-19T10:23:14;461.40;1689.60
57030;DHT22;42920;45.306;20.448;2023-04-19T10:25:39;461.50;1766.40
57030;DHT22;42920;45.306;20.448;2023-04-19T10:28:09;461.70;1792.00
57030;DHT22;42920;45.306;20.448;2023-04-19T10:30:35;461.70;1740.80
57030;DHT22;42920;45.306;20.448;2023-04-19T10:33:01;461.30;1689.60
57030;DHT22;42920;45.306;20.448;2023-04-19T10:41:09;461.40;1766.40
57030;DHT22;42920;45.306;20.448;2023-04-19T10:43:19;461.40;1740.80
57030;DHT22;42920;45.306;20.448;2023-04-19T10:45:45;461.30;1766.40
57030;DHT22;42920;45.306;20.448;2023-04-19T10:50:58;460.90;1920.00
57030;DHT22;42920;45.306;20.448;2023-04-19T10:56:08;435.90;1971.20
57030;DHT22;42920;45.306;20.448;2023-04-19T11:01:42;435.50;2073.60
57030;DHT22;42920;45.306;20.448;2023-04-19T11:04:08;435.40;2278.40
57030;DHT22;42920;45.306;20.448;2023-04-19T11:06:34;435.30;2304.00
57030;DHT22;42920;45.306;20.448;2023-04-19T11:09:00;435.30;2252.80
57030;DHT22;42920;45.306;20.448;2023-04-19T11:11:35;435.30;2227.20
57030;DHT22;42920;45.306;20.448;2023-04-19T11:14:00;435.30;2227.20
57030;DHT22;42920;45.306;20.448;2023-04-19T11:16:27;435.20;2124.80
57030;DHT22;42920;45.306;20.448;2023-04-19T11:18:52;435.20;2124.80
57030;DHT22;42920;45.306;20.448;2023-04-19T11:21:19;410.50;2048.00
57030;DHT22;42920;45.306;20.448;2023-04-19T11:23:44;435.20;2022.40
57030;DHT22;42920;45.306;20.448;2023-04-19T11:26:12;435.20;2099.20
57030;DHT22;42920;45.306;20.448;2023-04-19T11:28:38;410.50;2022.40
57030;DHT22;42920;45.306;20.448;2023-04-19T11:31:04;410.50;2048.00
57030;DHT22;42920;45.306;20.448;2023-04-19T11:33:33;410.50;2022.40
57030;DHT22;42920;45.306;20.448;2023-04-19T11:35:58;410.50;2124.80
57030;DHT22;42920;45.306;20.448;2023-04-19T11:38:26;410.50;2124.80
57030;DHT22;42920;45.306;20.448;2023-04-19T11:41:01;410.30;2176.00
57030;DHT22;42920;45.306;20.448;2023-04-19T11:43:36;410.40;2252.80
57030;DHT22;42920;45.306;20.448;2023-04-19T11:46:05;410.50;2227.20
57030;DHT22;42920;45.306;20.448;2023-04-19T11:48:31;435.20;2150.40
57030;DHT22;42920;45.306;20.448;2023-04-19T11:50:57;435.40;2124.80
57030;DHT22;42920;45.306;20.448;2023-04-19T11:53:23;435.50;2150.40
57030;DHT22;42920;45.306;20.448;2023-04-19T11:55:56;435.70;2176.00
57030;DHT22;42920;45.306;20.448;2023-04-19T11:58:29;436.10;2150.40
57030;DHT22;42920;45.306;20.448;2023-04-19T12:01:09;461.00;1996.80
57030;DHT22;42920;45.306;20.448;2023-04-19T12:03:38;461.10;1996.80
57030;DHT22;42920;45.306;20.448;2023-04-19T12:06:04;461.10;1817.60
57030;DHT22;42920;45.306;20.448;2023-04-19T12:08:35;461.00;1868.80
57030;DHT22;42920;45.306;20.448;2023-04-19T12:11:01;460.90;1868.80
57030;DHT22;42920;45.306;20.448;2023-04-19T12:13:27;460.90;1817.60
57030;DHT22;42920;45.306;20.448;2023-04-19T12:15:55;461.10;1689.60
57030;DHT22;42920;45.306;20.448;2023-04-19T12:18:21;461.20;1766.40
57030;DHT22;42920;45.306;20.448;2023-04-19T12:20:47;461.20;1843.20
57030;DHT22;42920;45.306;20.448;2023-04-19T12:23:13;460.90;1792.00
57030;DHT22;42920;45.306;20.448;2023-04-19T12:25:40;460.90;1740.80
57030;DHT22;42920;45.306;20.448;2023-04-19T12:28:06;460.90;1792.00
57030;DHT22;42920;45.306;20.448;2023-04-19T12:30:31;461.00;1792.00
57030;DHT22;42920;45.306;20.448;2023-04-19T12:32:57;461.40;1740.80
57030;DHT22;42920;45.306;20.448;2023-04-19T12:35:24;461.70;1689.60
57030;DHT22;42920;45.306;20.448;2023-04-19T12:37:51;461.70;1689.60
57030;DHT22;42920;45.306;20.448;2023-04-19T12:40:17;461.50;1689.60
57030;DHT22;42920;45.306;20.448;2023-04-19T12:42:42;486.40;1664.00
57030;DHT22;42920;45.306;20.448;2023-04-19T12:45:08;461.70;1715.20
57030;DHT22;42920;45.306;20.448;2023-04-19T12:47:34;461.60;1740.80
57030;DHT22;42920;45.306;20.448;2023-04-19T12:49:59;461.40;1792.00
57030;DHT22;42920;45.306;20.448;2023-04-19T12:52:26;461.20;1843.20
57030;DHT22;42920;45.306;20.448;2023-04-19T12:54:51;461.00;1817.60
57030;DHT22;42920;45.306;20.448;2023-04-19T12:57:17;460.90;1843.20
57030;DHT22;42920;45.306;20.448;2023-04-19T12:59:42;436.00;1843.20
57030;DHT22;42920;45.306;20.448;2023-04-19T13:02:08;436.00;1894.40
57030;DHT22;42920;45.306;20.448;2023-04-19T13:04:34;460.80;1868.80
57030;DHT22;42920;45.306;20.448;2023-04-19T13:07:00;461.20;1868.80
57030;DHT22;42920;45.306;20.448;2023-04-19T13:09:26;461.40;1843.20
57030;DHT22;42920;45.306;20.448;2023-04-19T13:11:53;486.40;1792.00
57030;DHT22;42920;45.306;20.448;2023-04-19T13:14:18;486.70;1817.60
57030;DHT22;42920;45.306;20.448;2023-04-19T13:16:44;487.10;1817.60
57030;DHT22;42920;45.306;20.448;2023-04-19T13:19:09;487.30;1766.40
57030;DHT22;42920;45.306;20.448;2023-04-19T13:21:35;487.30;1689.60
57030;DHT22;42920;45.306;20.448;2023-04-19T13:24:00;512.10;1689.60
57030;DHT22;42920;45.306;20.448;2023-04-19T13:26:26;487.30;1715.20
57030;DHT22;42920;45.306;20.448;2023-04-19T13:28:52;487.00;1715.20
57030;DHT22;42920;45.306;20.448;2023-04-19T13:31:17;486.80;1766.40
57030;DHT22;42920;45.306;20.448;2023-04-19T13:33:43;486.60;1792.00
57030;DHT22;42920;45.306;20.448;2023-04-19T13:36:08;486.50;1792.00
57030;DHT22;42920;45.306;20.448;2023-04-19T13:38:34;486.50;1868.80
57030;DHT22;42920;45.306;20.448;2023-04-19T13:41:01;486.70;1843.20
57030;DHT22;42920;45.306;20.448;2023-04-19T13:43:26;486.60;1894.40
57030;DHT22;42920;45.306;20.448;2023-04-19T13:45:52;486.40;1920.00
57030;DHT22;42920;45.306;20.448;2023-04-19T13:48:18;461.70;1945.60
57030;DHT22;42920;45.306;20.448;2023-04-19T13:50:43;461.50;1971.20
57030;DHT22;42920;45.306;20.448;2023-04-19T13:53:09;461.50;1868.80
57030;DHT22;42920;45.306;20.448;2023-04-19T13:55:34;461.40;1945.60
57030;DHT22;42920;45.306;20.448;2023-04-19T13:58:00;461.40;1945.60
57030;DHT22;42920;45.306;20.448;2023-04-19T14:00:26;461.40;1945.60
57030;DHT22;42920;45.306;20.448;2023-04-19T14:02:52;461.40;2022.40
57030;DHT22;42920;45.306;20.448;2023-04-19T14:05:18;461.40;1996.80
57030;DHT22;42920;45.306;20.448;2023-04-19T14:07:44;461.30;1971.20
57030;DHT22;42920;45.306;20.448;2023-04-19T14:10:09;461.20;1945.60
57030;DHT22;42920;45.306;20.448;2023-04-19T14:12:35;461.20;1971.20
57030;DHT22;42920;45.306;20.448;2023-04-19T14:15:01;461.20;1996.80
57030;DHT22;42920;45.306;20.448;2023-04-19T14:17:26;461.10;2022.40
57030;DHT22;42920;45.306;20.448;2023-04-19T14:19:52;461.10;2048.00
57030;DHT22;42920;45.306;20.448;2023-04-19T14:22:18;461.00;2022.40
57030;DHT22;42920;45.306;20.448;2023-04-19T14:24:43;461.00;2048.00
57030;DHT22;42920;45.306;20.448;2023-04-19T14:27:10;461.00;2048.00
57030;DHT22;42920;45.306;20.448;2023-04-19T14:29:36;461.00;1996.80
57030;DHT22;42920;45.306;20.448;2023-04-19T14:32:01;461.00;1971.20
57030;DHT22;42920;45.306;20.448;2023-04-19T14:34:27;461.00;2022.40
57030;DHT22;42920;45.306;20.448;2023-04-19T14:36:52;461.00;1996.80
57030;DHT22;42920;45.306;20.448;2023-04-19T14:39:18;460.90;1945.60
57030;DHT22;42920;45.306;20.448;2023-04-19T14:41:44;460.90;1971.20
57030;DHT22;42920;45.306;20.448;2023-04-19T14:44:09;460.80;2022.40
57030;DHT22;42920;45.306;20.448;2023-04-19T14:46:35;436.10;2022.40